Ireland, Indiana
Current Conditions -  °F | °C
As of 2:35 PM on Monday 26 Jan 2015 (Local Time) from KHNB Reporting Station
Overcast Overcast  
Wind Chill: 21°   Ceiling: 1200
Heat Index: 30°   Visibility: 10mi
Dew Point: 25°   Wind: 12mph
Humidity: 80%   Direction: 270°W
Pressure: 29.96"   Gusts: NA
Location:  38.41°N, 87°W
Report Text: KHNB 262035Z AUTO 27010KT 10SM OVC012 M01/M04 A2996 RMK AO1
Loading
Personal Weather Stations






























Interactive Weather Map New forecast layout! Learn more

10-Day Weather Forecast

Advertisements
Track Severe Weather on mobile